createdAt,value
2022-11-07T00:02:28.322Z,66.53
2022-11-07T00:05:01.505Z,67.67
2022-11-07T00:08:32.199Z,66.95
2022-11-07T00:11:03.231Z,67.73
2022-11-07T00:13:31.273Z,67.14
2022-11-07T00:16:16.220Z,65.99
2022-11-07T00:18:51.277Z,65.53
2022-11-07T00:21:24.366Z,66.09
2022-11-07T00:23:51.971Z,67.58
2022-11-07T00:26:19.471Z,67.87
2022-11-07T00:28:47.323Z,66.87
2022-11-07T00:31:16.054Z,66.66
2022-11-07T00:33:44.014Z,66.91
2022-11-07T00:36:18.924Z,68.94
2022-11-07T00:38:46.528Z,64.79
2022-11-07T00:41:15.098Z,66.16
2022-11-07T00:43:42.564Z,68.03
2022-11-07T00:46:11.550Z,68.24
2022-11-07T00:48:39.262Z,68.56
2022-11-07T00:51:12.914Z,68.25
2022-11-07T00:53:41.187Z,67.90
2022-11-07T00:56:11.490Z,67.46
2022-11-07T00:58:39.389Z,67.72
2022-11-07T01:01:11.099Z,64.61
2022-11-07T01:03:57.479Z,66.15
2022-11-07T01:06:27.329Z,68.58
2022-11-07T01:08:56.877Z,68.09
2022-11-07T01:11:25.977Z,69.71
2022-11-07T01:14:01.585Z,69.75
2022-11-07T01:16:30.839Z,72.74
2022-11-07T01:18:58.496Z,73.45
2022-11-07T01:21:25.905Z,75.27
2022-11-07T01:23:53.331Z,80.60
2022-11-07T01:26:21.028Z,80.40
2022-11-07T01:28:48.430Z,83.44
2022-11-07T01:31:18.293Z,87.92
2022-11-07T01:33:46.356Z,91.65
2022-11-07T01:36:16.897Z,97.28
2022-11-07T01:38:48.790Z,100.00
2022-11-07T01:41:22.656Z,100.00
2022-11-07T01:44:00.635Z,99.87
2022-11-07T01:46:48.565Z,99.94
2022-11-07T01:49:26.301Z,100.00
2022-11-07T01:52:17.812Z,100.00
2022-11-07T01:54:45.147Z,97.81
2022-11-07T01:57:19.738Z,97.28
2022-11-07T01:59:47.524Z,92.82
2022-11-07T02:02:15.556Z,90.21
2022-11-07T02:04:43.563Z,87.35
2022-11-07T02:07:18.167Z,84.75
2022-11-07T02:09:46.369Z,84.57
2022-11-07T02:12:14.825Z,88.16
2022-11-07T02:14:43.496Z,88.84
2022-11-07T02:17:15.907Z,87.08
2022-11-07T02:19:47.621Z,84.36
2022-11-07T02:22:24.505Z,87.66
2022-11-07T02:24:58.723Z,93.55
2022-11-07T02:27:30.712Z,92.29
2022-11-07T02:30:26.178Z,94.54
2022-11-07T02:32:54.514Z,84.86
2022-11-07T02:35:41.856Z,89.87
2022-11-07T02:38:31.395Z,90.02
2022-11-07T02:41:12.447Z,94.27
2022-11-07T02:43:43.043Z,94.61
2022-11-07T02:46:13.324Z,96.78
2022-11-07T02:49:01.695Z,100.00
2022-11-07T02:51:29.452Z,97.28
2022-11-07T02:53:57.001Z,94.04
2022-11-07T02:56:25.396Z,90.03
2022-11-07T02:58:53.043Z,85.00
2022-11-07T03:01:21.204Z,77.89
2022-11-07T03:03:56.030Z,80.13
2022-11-07T03:06:26.244Z,80.41
2022-11-07T03:08:57.883Z,80.37
2022-11-07T03:11:25.490Z,80.55
2022-11-07T03:13:54.705Z,80.83
2022-11-07T03:16:22.453Z,81.25
2022-11-07T03:18:49.964Z,79.91
2022-11-07T03:21:19.995Z,77.58
2022-11-07T03:23:50.559Z,77.58
2022-11-07T03:26:18.333Z,78.66
2022-11-07T03:28:45.888Z,78.17
2022-11-07T03:31:13.213Z,76.83
2022-11-07T03:33:40.599Z,76.51
2022-11-07T03:36:08.339Z,75.46
2022-11-07T03:38:35.755Z,74.65
2022-11-07T03:41:03.120Z,74.61
2022-11-07T03:43:30.453Z,74.38
2022-11-07T03:45:57.897Z,75.33
2022-11-07T03:48:25.401Z,79.10
2022-11-07T03:51:12.625Z,77.46
2022-11-07T03:54:17.415Z,75.30
2022-11-07T03:56:44.789Z,75.01
2022-11-07T03:59:12.130Z,75.89
2022-11-07T04:01:39.644Z,75.10
2022-11-07T04:04:07.108Z,72.83
2022-11-07T04:06:34.511Z,72.31
2022-11-07T04:09:01.882Z,72.70
2022-11-07T04:11:47.493Z,68.62
2022-11-07T04:14:33.168Z,71.38
2022-11-07T04:17:18.706Z,71.79
2022-11-07T04:19:50.836Z,71.99
2022-11-07T04:22:19.018Z,69.74
2022-11-07T04:24:46.828Z,72.49
2022-11-07T04:27:33.956Z,73.93
2022-11-07T04:30:19.684Z,74.87
2022-11-07T04:32:52.518Z,75.43
2022-11-07T04:35:26.364Z,76.58
2022-11-07T04:37:53.877Z,75.36
2022-11-07T04:40:22.358Z,70.79
2022-11-07T04:42:50.478Z,69.79
2022-11-07T04:45:18.333Z,70.79
2022-11-07T04:47:46.499Z,70.59
2022-11-07T04:50:16.345Z,69.72
2022-11-07T04:52:43.887Z,69.09
2022-11-07T04:55:22.025Z,71.13
2022-11-07T04:57:49.716Z,70.44
2022-11-07T05:00:19.248Z,72.67
2022-11-07T05:02:47.360Z,68.97
2022-11-07T05:05:15.668Z,73.12
2022-11-07T05:07:43.960Z,74.01
2022-11-07T05:10:31.652Z,79.04
2022-11-07T05:12:58.988Z,77.66
2022-11-07T05:15:26.314Z,78.58
2022-11-07T05:17:53.643Z,80.67
2022-11-07T05:20:34.835Z,82.28
2022-11-07T05:23:19.279Z,80.77
2022-11-07T05:25:54.658Z,78.65
2022-11-07T05:28:34.017Z,78.56
2022-11-07T05:31:06.275Z,78.63
2022-11-07T05:33:34.590Z,77.00
2022-11-07T05:36:14.431Z,81.29
2022-11-07T05:38:47.481Z,78.52
2022-11-07T05:41:16.319Z,75.21
2022-11-07T05:43:44.278Z,75.82
2022-11-07T05:46:12.217Z,78.90
2022-11-07T05:48:39.693Z,84.25
2022-11-07T05:51:08.788Z,83.62
2022-11-07T05:53:36.594Z,81.35
2022-11-07T05:56:04.281Z,80.54
2022-11-07T05:58:31.674Z,77.94
2022-11-07T06:01:06.234Z,79.68
2022-11-07T06:03:34.240Z,76.02
2022-11-07T06:06:02.195Z,78.16
2022-11-07T06:08:29.526Z,77.81
2022-11-07T06:10:56.879Z,77.83
2022-11-07T06:13:24.309Z,76.20
2022-11-07T06:15:51.739Z,74.06
2022-11-07T06:18:20.923Z,72.02
2022-11-07T06:20:48.533Z,69.21
2022-11-07T06:23:16.569Z,68.51
2022-11-07T06:25:44.148Z,69.76
2022-11-07T06:28:15.445Z,67.57
2022-11-07T06:30:43.261Z,66.64
2022-11-07T06:33:14.386Z,67.11
2022-11-07T06:35:42.314Z,65.09
2022-11-07T06:38:12.028Z,65.98
2022-11-07T06:40:41.421Z,63.48
2022-11-07T06:43:16.569Z,63.33
2022-11-07T06:45:45.338Z,64.31
2022-11-07T06:48:13.376Z,63.65
2022-11-07T06:50:40.849Z,62.11
2022-11-07T06:53:11.357Z,63.35
2022-11-07T06:55:39.180Z,64.33
2022-11-07T06:58:06.790Z,62.41
2022-11-07T07:00:36.354Z,62.69
2022-11-07T07:03:04.284Z,62.76
2022-11-07T07:05:33.215Z,62.21
2022-11-07T07:08:00.629Z,62.45
2022-11-07T07:10:27.984Z,62.39
2022-11-07T07:12:56.794Z,61.16
2022-11-07T07:15:24.274Z,61.39
2022-11-07T07:17:51.611Z,61.20
2022-11-07T07:20:19.033Z,62.06
2022-11-07T07:22:50.158Z,62.72
2022-11-07T07:25:20.990Z,60.13
2022-11-07T07:27:48.591Z,61.34
2022-11-07T07:30:17.725Z,62.07
2022-11-07T07:32:45.177Z,61.42
2022-11-07T07:35:12.500Z,62.23
2022-11-07T07:37:39.872Z,63.85
2022-11-07T07:40:08.016Z,62.51
2022-11-07T07:42:41.582Z,61.45
2022-11-07T07:45:11.581Z,60.57
2022-11-07T07:47:39.918Z,60.38
2022-11-07T07:50:09.514Z,60.08
2022-11-07T07:52:36.908Z,59.29
2022-11-07T07:55:04.822Z,59.83
2022-11-07T07:57:32.239Z,59.23
2022-11-07T07:59:59.564Z,59.64
2022-11-07T08:02:27.029Z,59.76
2022-11-07T08:04:54.422Z,59.57
2022-11-07T08:07:21.780Z,58.45
2022-11-07T08:09:49.271Z,57.82
2022-11-07T08:12:16.566Z,58.64
2022-11-07T08:14:43.905Z,58.34
2022-11-07T08:17:11.305Z,57.28
2022-11-07T08:19:38.765Z,56.40
2022-11-07T08:22:06.203Z,57.55
2022-11-07T08:24:33.539Z,57.39
2022-11-07T08:27:01.152Z,57.16
2022-11-07T08:29:28.536Z,56.64
2022-11-07T08:31:55.941Z,57.02
2022-11-07T08:34:23.287Z,56.20
2022-11-07T08:36:50.774Z,57.33
2022-11-07T08:39:18.191Z,56.39
2022-11-07T08:41:45.570Z,55.90
2022-11-07T08:44:13.010Z,55.13
2022-11-07T08:46:40.466Z,56.34
2022-11-07T08:49:07.764Z,55.12
2022-11-07T08:51:35.132Z,55.09
2022-11-07T08:54:02.482Z,55.33
2022-11-07T08:56:30.833Z,54.43
2022-11-07T08:58:58.205Z,55.22
2022-11-07T09:01:25.797Z,54.50
2022-11-07T09:03:57.953Z,54.19
2022-11-07T09:06:25.753Z,55.99
2022-11-07T09:08:53.383Z,53.39
2022-11-07T09:11:22.258Z,53.32
2022-11-07T09:13:49.602Z,53.53
2022-11-07T09:16:20.163Z,54.06
2022-11-07T09:18:49.561Z,53.48
2022-11-07T09:21:22.072Z,54.79
2022-11-07T09:23:50.927Z,54.02
2022-11-07T09:26:18.365Z,53.81
2022-11-07T09:28:50.930Z,54.42
2022-11-07T09:31:19.522Z,54.75
2022-11-07T09:33:46.978Z,54.09
2022-11-07T09:36:14.880Z,55.45
2022-11-07T09:38:42.268Z,53.44
2022-11-07T09:41:33.440Z,55.84
2022-11-07T09:44:30.507Z,53.54
2022-11-07T09:47:10.965Z,55.08
2022-11-07T09:49:48.626Z,53.70
2022-11-07T09:52:42.269Z,54.66
2022-11-07T09:55:18.896Z,54.02
2022-11-07T09:57:47.801Z,55.06
2022-11-07T10:00:20.629Z,54.10
2022-11-07T10:02:53.028Z,53.77
2022-11-07T10:05:58.057Z,54.44
2022-11-07T10:08:43.024Z,54.99
2022-11-07T10:11:36.160Z,54.55
2022-11-07T10:14:21.956Z,55.08
2022-11-07T10:17:13.885Z,54.88
2022-11-07T10:20:05.663Z,57.24
2022-11-07T10:22:40.943Z,55.73
2022-11-07T10:25:11.423Z,55.13
2022-11-07T10:27:40.647Z,54.11
2022-11-07T10:30:19.847Z,56.15
2022-11-07T10:32:50.335Z,55.83
2022-11-07T10:35:31.067Z,56.07
2022-11-07T10:38:05.072Z,56.67
2022-11-07T10:40:41.884Z,56.81
2022-11-07T10:43:20.259Z,57.41
2022-11-07T10:45:47.752Z,55.67
2022-11-07T10:48:15.395Z,55.03
2022-11-07T10:50:54.386Z,57.94
2022-11-07T10:53:23.406Z,55.44
2022-11-07T10:55:52.512Z,55.72
2022-11-07T10:58:26.109Z,57.54
2022-11-07T11:01:09.193Z,55.56
2022-11-07T11:03:45.676Z,55.87
2022-11-07T11:06:19.584Z,56.41
2022-11-07T11:08:48.790Z,55.39
2022-11-07T11:11:33.733Z,55.46
2022-11-07T11:14:13.435Z,54.37
2022-11-07T11:16:43.423Z,55.65
2022-11-07T11:19:21.418Z,55.96
2022-11-07T11:21:51.088Z,55.88
2022-11-07T11:24:26.884Z,56.45
2022-11-07T11:27:17.222Z,55.52
2022-11-07T11:29:51.089Z,53.99
2022-11-07T11:32:27.727Z,54.19
2022-11-07T11:35:02.387Z,55.06
2022-11-07T11:37:35.139Z,55.47
2022-11-07T11:40:02.658Z,55.17
2022-11-07T11:42:37.206Z,54.44
2022-11-07T11:45:32.306Z,55.82
2022-11-07T11:48:25.876Z,56.56
2022-11-07T11:51:05.531Z,55.54
2022-11-07T11:53:33.084Z,53.84
2022-11-07T11:56:03.429Z,54.62
2022-11-07T11:58:44.143Z,54.90
2022-11-07T12:01:37.729Z,55.08
2022-11-07T12:04:20.859Z,54.26
2022-11-07T12:06:49.622Z,55.29
2022-11-07T12:09:38.315Z,56.65
2022-11-07T12:12:23.971Z,56.35
2022-11-07T12:15:04.140Z,55.91
2022-11-07T12:17:42.036Z,56.08
2022-11-07T12:20:31.085Z,55.88
2022-11-07T12:23:10.562Z,55.41
2022-11-07T12:26:00.838Z,56.30
2022-11-07T12:29:05.356Z,56.38
2022-11-07T12:31:48.492Z,55.24
2022-11-07T12:34:45.460Z,56.62
2022-11-07T12:37:24.548Z,57.31
2022-11-07T12:40:28.599Z,56.73
2022-11-07T12:43:13.791Z,55.64
2022-11-07T12:46:08.956Z,55.60
2022-11-07T12:49:05.174Z,56.18
2022-11-07T12:51:43.147Z,56.98
2022-11-07T12:54:55.598Z,56.68
2022-11-07T12:57:42.656Z,55.81
2022-11-07T13:00:29.816Z,57.01
2022-11-07T13:03:57.722Z,58.54
2022-11-07T13:06:39.016Z,55.37
2022-11-07T13:09:21.812Z,56.33
2022-11-07T13:12:08.009Z,56.60
2022-11-07T13:14:40.669Z,55.20
2022-11-07T13:17:08.272Z,54.14
2022-11-07T13:19:41.728Z,55.33
2022-11-07T13:22:23.699Z,55.19
2022-11-07T13:24:54.796Z,55.38
2022-11-07T13:27:24.931Z,56.00
2022-11-07T13:29:53.695Z,54.61
2022-11-07T13:32:21.412Z,54.90
2022-11-07T13:34:54.707Z,54.43
2022-11-07T13:37:32.709Z,55.97
2022-11-07T13:40:21.709Z,53.83
2022-11-07T13:43:00.571Z,56.37
2022-11-07T13:45:46.453Z,55.14
2022-11-07T13:48:20.177Z,55.94
2022-11-07T13:51:09.234Z,56.17
2022-11-07T13:53:42.707Z,56.00
2022-11-07T13:56:21.073Z,56.21
2022-11-07T13:58:56.187Z,56.23
2022-11-07T14:01:23.948Z,55.52
2022-11-07T14:03:52.137Z,55.28
2022-11-07T14:06:19.783Z,54.79
2022-11-07T14:08:48.787Z,55.44
2022-11-07T14:11:23.975Z,56.40
2022-11-07T14:13:54.524Z,56.03
2022-11-07T14:16:25.207Z,56.05
2022-11-07T14:19:02.561Z,55.41
2022-11-07T14:21:35.477Z,54.13
2022-11-07T14:24:04.054Z,54.63
2022-11-07T14:26:34.071Z,55.65
2022-11-07T14:29:03.931Z,55.31
2022-11-07T14:31:36.584Z,55.47
2022-11-07T14:34:19.276Z,55.64
2022-11-07T14:36:54.781Z,54.90
2022-11-07T14:39:24.197Z,55.93
2022-11-07T14:41:52.879Z,56.44
2022-11-07T14:44:28.392Z,56.63
2022-11-07T14:47:04.787Z,55.88
2022-11-07T14:49:39.965Z,55.43
2022-11-07T14:52:19.020Z,55.50
2022-11-07T14:54:47.886Z,54.86
2022-11-07T14:57:16.146Z,53.70
2022-11-07T14:59:44.147Z,54.56
2022-11-07T15:02:26.610Z,54.28
2022-11-07T15:04:58.867Z,55.07
2022-11-07T15:07:34.599Z,54.84
2022-11-07T15:10:17.375Z,55.95
2022-11-07T15:12:53.978Z,56.27
2022-11-07T15:15:24.421Z,55.71
2022-11-07T15:17:55.354Z,56.12
2022-11-07T15:20:33.009Z,56.34
2022-11-07T15:23:04.329Z,56.68
2022-11-07T15:25:34.571Z,55.96
2022-11-07T15:28:23.706Z,56.85
2022-11-07T15:30:53.789Z,55.39
2022-11-07T15:33:21.880Z,56.01
2022-11-07T15:35:53.121Z,55.87
2022-11-07T15:38:28.381Z,56.95
2022-11-07T15:40:56.124Z,56.00
2022-11-07T15:43:23.689Z,56.04
2022-11-07T15:45:52.975Z,55.83
2022-11-07T15:48:23.478Z,56.15
2022-11-07T15:50:50.901Z,55.61
2022-11-07T15:53:26.825Z,56.94
2022-11-07T15:55:57.847Z,55.79
2022-11-07T15:58:28.111Z,55.73
2022-11-07T16:00:57.160Z,54.62
2022-11-07T16:03:25.883Z,55.15
2022-11-07T16:05:55.629Z,54.89
2022-11-07T16:08:25.296Z,55.08
2022-11-07T16:11:02.052Z,55.93
2022-11-07T16:13:29.818Z,55.47
2022-11-07T16:16:02.352Z,55.01
2022-11-07T16:18:43.186Z,54.99
2022-11-07T16:21:10.839Z,55.44
2022-11-07T16:23:39.397Z,55.95
2022-11-07T16:26:13.922Z,56.09
2022-11-07T16:28:41.944Z,54.89
2022-11-07T16:31:12.386Z,55.25
2022-11-07T16:33:39.826Z,54.64
2022-11-07T16:36:26.841Z,56.53
2022-11-07T16:38:54.380Z,55.59
2022-11-07T16:41:22.655Z,55.63
2022-11-07T16:43:50.486Z,55.09
2022-11-07T16:46:20.644Z,56.04
2022-11-07T16:48:51.684Z,55.27
2022-11-07T16:51:22.011Z,55.47
2022-11-07T16:53:50.711Z,55.81
2022-11-07T16:56:25.761Z,55.66
2022-11-07T16:58:54.766Z,55.41
2022-11-07T17:01:23.709Z,55.34
2022-11-07T17:03:51.720Z,55.27
2022-11-07T17:06:39.015Z,55.68
2022-11-07T17:09:13.200Z,55.56
2022-11-07T17:11:41.076Z,54.85
2022-11-07T17:14:08.514Z,55.39
2022-11-07T17:16:37.176Z,56.05
2022-11-07T17:19:06.381Z,56.08
2022-11-07T17:21:37.115Z,55.73
2022-11-07T17:24:06.261Z,55.92
2022-11-07T17:26:35.977Z,56.44
2022-11-07T17:29:06.497Z,56.66
2022-11-07T17:31:34.430Z,55.97
2022-11-07T17:34:01.972Z,56.34
